Republica Dominicana

METAR

SADR31 MDSD 260000Z
METAR

METAR MDPP 260000Z 09012KT 9999 FEW020 26/21 Q1015=
METAR MDST 260000Z 13007KT 9999 FEW020 26/19 Q1015=
METAR MDPC 260000Z 07006KT 9999 FEW025 26/21 Q1016 NOSIG=
METAR MDBH 260000Z 13006KT 9999 FEW018 26/20 Q1016=
METAR MDSD 260000Z 15004KT 9999 FEW020 27/21 Q1015=
METAR MDLR 260000Z 00000KT 9999 FEW018 26/22 Q1015=
METAR MDCY 260000Z 00000KT 9999 FEW020 26/22 Q1014=




Tamaño letra

Contraste

Otros